createdAt,value
2023-05-08T00:01:06.388Z,65.75
2023-05-08T00:03:53.147Z,65.38
2023-05-08T00:06:40.539Z,65.77
2023-05-08T00:09:27.661Z,66.38
2023-05-08T00:12:14.769Z,66.66
2023-05-08T00:15:02.115Z,66.50
2023-05-08T00:25:45.873Z,66.55
2023-05-08T00:28:40.458Z,67.43
2023-05-08T00:31:27.597Z,68.78
2023-05-08T00:34:14.993Z,68.92
2023-05-08T00:37:03.816Z,68.67
2023-05-08T00:39:50.481Z,68.86
2023-05-08T00:42:38.274Z,69.04
2023-05-08T00:45:26.665Z,69.14
2023-05-08T00:48:13.470Z,68.65
2023-05-08T00:51:04.789Z,68.50
2023-05-08T00:53:52.016Z,68.46
2023-05-08T00:56:39.924Z,68.06
2023-05-08T00:59:28.516Z,68.51
2023-05-08T01:02:15.777Z,68.50
2023-05-08T01:15:27.908Z,67.09
2023-05-08T01:18:28.270Z,67.96
2023-05-08T01:21:25.408Z,68.07
2023-05-08T01:24:54.779Z,68.77
2023-05-08T01:27:53.820Z,69.13
2023-05-08T01:31:03.168Z,69.17
2023-05-08T01:34:09.218Z,68.95
2023-05-08T01:37:04.634Z,68.78
2023-05-08T01:40:11.625Z,68.57
2023-05-08T01:43:18.929Z,68.74
2023-05-08T01:46:14.062Z,68.57
2023-05-08T01:49:11.607Z,68.43
2023-05-08T01:52:06.023Z,68.04
2023-05-08T01:55:04.361Z,67.76
2023-05-08T01:57:55.292Z,67.69
2023-05-08T02:00:43.991Z,67.72
2023-05-08T02:03:36.019Z,67.99
2023-05-08T02:06:25.239Z,67.63
2023-05-08T02:09:13.216Z,67.63
2023-05-08T02:12:22.473Z,67.90
2023-05-08T02:15:13.450Z,67.77
2023-05-08T02:18:00.928Z,67.87
2023-05-08T02:20:51.953Z,67.69
2023-05-08T02:23:38.711Z,67.87
2023-05-08T02:26:27.330Z,68.12
2023-05-08T02:29:15.305Z,68.04
2023-05-08T02:32:04.287Z,68.27
2023-05-08T02:35:02.509Z,68.16
2023-05-08T02:37:53.884Z,68.27
2023-05-08T02:40:47.679Z,68.40
2023-05-08T02:43:35.933Z,68.72
2023-05-08T02:46:34.934Z,68.26
2023-05-08T02:49:44.120Z,68.29
2023-05-08T02:52:44.546Z,68.66
2023-05-08T02:55:35.095Z,68.51
2023-05-08T02:58:40.113Z,68.75
2023-05-08T03:01:38.321Z,69.74
2023-05-08T03:04:34.784Z,69.90
2023-05-08T03:07:25.808Z,70.18
2023-05-08T03:10:16.857Z,69.91
2023-05-08T03:13:07.269Z,69.94
2023-05-08T03:15:57.711Z,69.66
2023-05-08T03:19:10.772Z,68.95
2023-05-08T03:21:59.221Z,68.65
2023-05-08T03:24:47.497Z,68.75
2023-05-08T03:27:37.534Z,68.89
2023-05-08T03:30:27.078Z,69.11
2023-05-08T03:33:23.597Z,69.23
2023-05-08T03:36:11.972Z,68.80
2023-05-08T03:39:00.683Z,68.59
2023-05-08T03:41:49.877Z,68.06
2023-05-08T03:44:37.971Z,67.64
2023-05-08T03:47:26.412Z,68.00
2023-05-08T03:50:15.407Z,67.90
2023-05-08T03:53:02.926Z,67.21
2023-05-08T03:55:49.856Z,66.79
2023-05-08T03:59:00.194Z,66.55
2023-05-08T04:01:55.380Z,66.80
2023-05-08T04:04:45.900Z,66.14
2023-05-08T04:07:48.138Z,65.98
2023-05-08T04:10:44.581Z,65.34
2023-05-08T04:13:34.460Z,65.03
2023-05-08T04:16:27.497Z,64.54
2023-05-08T04:19:23.646Z,64.48
2023-05-08T04:22:13.347Z,64.42
2023-05-08T04:25:06.953Z,64.38
2023-05-08T04:27:56.415Z,64.31
2023-05-08T04:30:44.431Z,64.22
2023-05-08T04:33:35.034Z,64.14
2023-05-08T04:36:22.223Z,64.51
2023-05-08T04:39:10.965Z,64.77
2023-05-08T04:42:04.555Z,64.81
2023-05-08T04:44:54.584Z,64.73
2023-05-08T04:47:42.887Z,64.71
2023-05-08T04:50:30.010Z,64.95
2023-05-08T04:53:25.099Z,64.46
2023-05-08T04:56:45.755Z,64.62
2023-05-08T04:59:56.956Z,64.85
2023-05-08T05:03:02.175Z,64.75
2023-05-08T05:05:51.609Z,64.43
2023-05-08T05:08:38.467Z,64.29
2023-05-08T05:11:25.333Z,64.47
2023-05-08T05:14:12.551Z,63.55
2023-05-08T05:17:02.162Z,62.44
2023-05-08T05:19:51.472Z,59.87
2023-05-08T05:22:39.157Z,59.44
2023-05-08T05:25:26.085Z,59.12
2023-05-08T05:28:12.781Z,59.02
2023-05-08T05:31:00.641Z,59.06
2023-05-08T05:33:47.819Z,58.79
2023-05-08T05:36:34.599Z,58.33
2023-05-08T05:39:22.366Z,58.27
2023-05-08T05:42:09.642Z,58.48
2023-05-08T05:44:57.222Z,58.50
2023-05-08T05:47:50.824Z,58.81
2023-05-08T05:50:39.138Z,58.95
2023-05-08T05:53:26.017Z,59.69
2023-05-08T05:56:13.257Z,60.89
2023-05-08T05:59:05.311Z,62.01
2023-05-08T06:02:02.669Z,63.56
2023-05-08T06:04:57.097Z,64.95
2023-05-08T06:07:44.930Z,66.64
2023-05-08T06:10:32.804Z,66.85
2023-05-08T06:13:21.523Z,67.55
2023-05-08T06:16:10.928Z,68.11
2023-05-08T06:19:03.147Z,68.61
2023-05-08T06:21:52.715Z,69.88
2023-05-08T06:24:40.861Z,70.28
2023-05-08T06:27:27.637Z,70.43
2023-05-08T06:30:14.366Z,70.07
2023-05-08T06:33:01.381Z,71.04
2023-05-08T06:35:50.192Z,71.62
2023-05-08T06:38:37.229Z,72.27
2023-05-08T06:41:23.918Z,72.42
2023-05-08T06:44:15.771Z,72.28
2023-05-08T06:47:03.657Z,72.16
2023-05-08T06:49:50.688Z,73.03
2023-05-08T06:52:40.815Z,72.99
2023-05-08T06:55:28.532Z,72.55
2023-05-08T06:58:16.227Z,73.43
2023-05-08T07:01:03.196Z,73.88
2023-05-08T07:03:49.786Z,74.25
2023-05-08T07:06:36.702Z,73.73
2023-05-08T07:09:23.649Z,73.95
2023-05-08T07:12:10.281Z,74.89
2023-05-08T07:14:57.966Z,74.49
2023-05-08T07:17:45.285Z,74.63
2023-05-08T07:20:32.293Z,74.43
2023-05-08T07:23:19.457Z,75.22
2023-05-08T07:26:08.609Z,74.83
2023-05-08T07:28:55.516Z,75.66
2023-05-08T07:31:42.818Z,74.51
2023-05-08T07:34:30.543Z,75.26
2023-05-08T07:37:17.375Z,74.61
2023-05-08T07:40:05.484Z,75.28
2023-05-08T07:42:52.236Z,74.64
2023-05-08T07:45:39.214Z,74.04
2023-05-08T07:48:26.347Z,73.81
2023-05-08T07:51:14.328Z,73.82
2023-05-08T07:54:01.269Z,74.31
2023-05-08T07:56:49.323Z,73.55
2023-05-08T07:59:36.428Z,72.96
2023-05-08T08:02:23.085Z,73.09
2023-05-08T08:05:10.385Z,72.92
2023-05-08T08:07:57.397Z,73.39
2023-05-08T08:10:44.373Z,73.51
2023-05-08T08:13:31.131Z,74.48
2023-05-08T08:16:19.773Z,74.38
2023-05-08T08:19:07.038Z,74.92
2023-05-08T08:21:53.674Z,74.67
2023-05-08T08:24:43.041Z,75.33
2023-05-08T08:27:30.943Z,74.57
2023-05-08T08:30:18.786Z,75.15
2023-05-08T08:33:06.554Z,74.69
2023-05-08T08:35:53.378Z,73.80
2023-05-08T08:38:40.340Z,72.94
2023-05-08T08:41:28.192Z,73.60
2023-05-08T08:44:15.438Z,73.81
2023-05-08T08:47:04.480Z,73.68
2023-05-08T08:49:52.999Z,74.37
2023-05-08T08:52:42.207Z,74.54
2023-05-08T08:55:31.098Z,73.01
2023-05-08T08:58:27.268Z,71.92
2023-05-08T09:01:18.749Z,72.75
2023-05-08T09:04:05.959Z,72.08
2023-05-08T09:06:55.063Z,70.22
2023-05-08T09:09:44.637Z,70.32
2023-05-08T09:12:31.734Z,71.76
2023-05-08T09:15:20.728Z,73.42
2023-05-08T09:18:07.851Z,73.60
2023-05-08T09:20:55.216Z,73.41
2023-05-08T09:23:57.092Z,72.46
2023-05-08T09:26:44.136Z,71.20
2023-05-08T09:29:30.906Z,71.42
2023-05-08T09:32:18.899Z,70.52
2023-05-08T09:35:07.559Z,71.30
2023-05-08T09:37:56.134Z,72.32
2023-05-08T09:40:44.228Z,72.30
2023-05-08T09:43:31.443Z,72.02
2023-05-08T09:46:24.759Z,71.21
2023-05-08T09:49:18.062Z,70.83
2023-05-08T09:52:05.172Z,71.21
2023-05-08T09:55:09.976Z,72.27
2023-05-08T09:57:59.536Z,72.62
2023-05-08T10:00:46.807Z,72.44
2023-05-08T10:04:06.469Z,72.73
2023-05-08T10:07:00.897Z,72.39
2023-05-08T10:10:05.249Z,72.33
2023-05-08T10:12:53.797Z,73.02
2023-05-08T10:15:44.827Z,73.79
2023-05-08T10:18:37.584Z,72.90
2023-05-08T10:21:28.709Z,72.49
2023-05-08T10:24:32.906Z,72.24
2023-05-08T10:27:28.152Z,71.95
2023-05-08T10:30:19.920Z,71.70
2023-05-08T10:33:11.177Z,71.52
2023-05-08T10:35:59.590Z,72.60
2023-05-08T10:38:47.966Z,72.07
2023-05-08T10:41:36.916Z,73.31
2023-05-08T10:44:27.489Z,73.51
2023-05-08T10:47:17.302Z,73.30
2023-05-08T10:50:20.274Z,72.24
2023-05-08T10:53:09.358Z,72.51
2023-05-08T10:55:58.528Z,72.75
2023-05-08T10:58:45.614Z,71.19
2023-05-08T11:01:32.628Z,71.17
2023-05-08T11:04:22.127Z,72.11
2023-05-08T11:07:09.913Z,71.93
2023-05-08T11:10:07.619Z,72.48
2023-05-08T11:12:55.040Z,73.63
2023-05-08T11:15:50.782Z,73.05
2023-05-08T11:18:48.816Z,72.82
2023-05-08T11:21:36.898Z,72.74
2023-05-08T11:24:36.250Z,72.37
2023-05-08T11:27:51.348Z,72.46
2023-05-08T11:30:44.621Z,72.51
2023-05-08T11:33:34.180Z,72.81
2023-05-08T11:36:22.912Z,73.10
2023-05-08T11:39:17.268Z,72.34
2023-05-08T11:42:27.395Z,72.57
2023-05-08T11:45:14.642Z,71.97
2023-05-08T11:48:02.661Z,72.42
2023-05-08T11:50:51.151Z,71.77
2023-05-08T11:53:38.652Z,72.67
2023-05-08T11:56:26.728Z,72.42
2023-05-08T11:59:14.816Z,72.64
2023-05-08T12:02:08.753Z,73.11
2023-05-08T12:04:56.827Z,73.82
2023-05-08T12:07:51.061Z,73.22
2023-05-08T12:10:43.146Z,73.45
2023-05-08T12:13:34.259Z,74.39
2023-05-08T12:16:25.267Z,74.48
2023-05-08T12:19:16.601Z,74.80
2023-05-08T12:22:06.183Z,75.10
2023-05-08T12:24:54.329Z,75.09
2023-05-08T12:27:42.419Z,75.47
2023-05-08T12:30:29.750Z,74.39
2023-05-08T12:33:20.971Z,74.60
2023-05-08T12:36:09.962Z,75.04
2023-05-08T12:39:16.506Z,75.28
2023-05-08T12:42:04.854Z,75.53
2023-05-08T12:44:55.215Z,75.48
2023-05-08T12:47:46.923Z,75.52
2023-05-08T12:50:39.115Z,76.24
2023-05-08T12:53:26.109Z,76.92
2023-05-08T12:56:13.051Z,77.44
2023-05-08T12:58:59.970Z,77.19
2023-05-08T13:01:51.517Z,76.61
2023-05-08T13:04:39.071Z,75.93
2023-05-08T13:07:33.232Z,76.04
2023-05-08T13:10:23.891Z,76.59
2023-05-08T13:13:13.865Z,76.70
2023-05-08T13:16:07.103Z,77.36
2023-05-08T13:18:54.023Z,77.00
2023-05-08T13:21:41.287Z,77.76
2023-05-08T13:24:28.591Z,78.18
2023-05-08T13:27:15.325Z,78.32
2023-05-08T13:30:01.892Z,78.17
2023-05-08T13:32:50.677Z,78.09
2023-05-08T13:35:38.297Z,77.71
2023-05-08T13:38:26.164Z,78.02
2023-05-08T13:41:12.893Z,78.12
2023-05-08T13:43:59.921Z,77.90
2023-05-08T13:46:46.982Z,77.98
2023-05-08T13:49:34.049Z,77.40
2023-05-08T13:52:21.177Z,77.87
2023-05-08T13:55:10.138Z,78.12
2023-05-08T13:57:58.054Z,77.83
2023-05-08T14:00:46.315Z,77.29
2023-05-08T14:03:33.044Z,77.61
2023-05-08T14:06:22.934Z,77.56
2023-05-08T14:09:09.773Z,77.70
2023-05-08T14:11:57.203Z,76.94
2023-05-08T14:14:44.585Z,76.80
2023-05-08T14:17:31.455Z,76.41
2023-05-08T14:20:18.666Z,76.29
2023-05-08T14:23:05.763Z,77.11
2023-05-08T14:25:52.735Z,77.75
2023-05-08T14:28:39.728Z,77.31
2023-05-08T14:31:26.416Z,76.75
2023-05-08T14:34:13.158Z,76.77
2023-05-08T14:37:00.185Z,77.48
2023-05-08T14:39:47.129Z,78.02
2023-05-08T14:42:34.759Z,77.95
2023-05-08T14:45:21.884Z,77.18
2023-05-08T14:48:10.263Z,77.30
2023-05-08T14:50:57.748Z,77.46
2023-05-08T14:53:45.114Z,77.32
2023-05-08T14:56:40.529Z,77.50
2023-05-08T14:59:34.915Z,77.72
2023-05-08T15:02:22.599Z,77.49
2023-05-08T15:05:19.028Z,76.87
2023-05-08T15:08:06.717Z,76.98
2023-05-08T15:10:53.789Z,76.36
2023-05-08T15:13:40.961Z,75.71
2023-05-08T15:16:28.083Z,75.41
2023-05-08T15:19:15.439Z,75.51
2023-05-08T15:22:02.319Z,74.98
2023-05-08T15:24:49.141Z,75.13
2023-05-08T15:27:38.457Z,74.49
2023-05-08T15:30:26.443Z,74.83
2023-05-08T15:33:13.957Z,75.68
2023-05-08T15:36:00.492Z,76.22
2023-05-08T15:38:49.366Z,75.89
2023-05-08T15:41:37.883Z,76.35
2023-05-08T15:44:26.735Z,75.94
2023-05-08T15:47:19.662Z,75.67
2023-05-08T15:50:08.932Z,75.65
2023-05-08T15:52:55.809Z,76.07
2023-05-08T15:55:42.926Z,75.74
2023-05-08T15:58:29.700Z,75.67
2023-05-08T16:01:16.466Z,75.32
2023-05-08T16:04:03.690Z,76.13
2023-05-08T16:06:50.944Z,76.08
2023-05-08T16:09:37.959Z,75.83
2023-05-08T16:12:25.292Z,76.63
2023-05-08T16:15:13.964Z,75.89
2023-05-08T16:18:01.466Z,75.95
2023-05-08T16:20:49.380Z,76.18
2023-05-08T16:23:36.372Z,76.31
2023-05-08T16:26:23.825Z,77.36
2023-05-08T16:29:10.688Z,77.51
2023-05-08T16:31:57.755Z,76.72
2023-05-08T16:34:44.803Z,77.37
2023-05-08T16:37:33.784Z,77.28
2023-05-08T16:40:40.013Z,77.25
2023-05-08T16:43:33.410Z,76.59
2023-05-08T16:46:29.584Z,76.95
2023-05-08T16:49:17.542Z,77.39
2023-05-08T16:52:04.688Z,77.66
2023-05-08T16:54:51.887Z,77.61
2023-05-08T16:57:39.088Z,78.53
2023-05-08T17:00:26.157Z,78.44
2023-05-08T17:03:13.226Z,78.32
2023-05-08T17:06:00.310Z,78.62
2023-05-08T17:08:47.280Z,78.40
2023-05-08T17:11:34.433Z,78.72
2023-05-08T17:14:21.085Z,78.74
2023-05-08T17:17:07.798Z,79.29
2023-05-08T17:19:54.743Z,78.73
2023-05-08T17:22:41.848Z,79.38
2023-05-08T17:25:28.793Z,79.59
2023-05-08T17:28:15.652Z,79.62
2023-05-08T17:31:03.751Z,78.53
2023-05-08T17:33:50.824Z,79.24
2023-05-08T17:36:37.693Z,79.47
2023-05-08T17:39:24.487Z,79.01
2023-05-08T17:42:11.498Z,79.01
2023-05-08T17:44:59.318Z,78.55
2023-05-08T17:47:46.242Z,78.61
2023-05-08T17:50:34.581Z,78.54
2023-05-08T17:53:21.362Z,78.44
2023-05-08T17:56:08.424Z,78.66
2023-05-08T17:58:55.910Z,78.32
2023-05-08T18:01:43.054Z,78.45
2023-05-08T18:04:30.014Z,78.30
2023-05-08T18:07:19.546Z,78.14
2023-05-08T18:10:07.004Z,77.85
2023-05-08T18:12:53.975Z,77.56
2023-05-08T18:15:41.318Z,77.75
2023-05-08T18:18:28.664Z,77.40
2023-05-08T18:21:17.414Z,77.87
2023-05-08T18:24:04.914Z,77.60
2023-05-08T18:26:52.689Z,78.30
2023-05-08T18:29:40.084Z,78.21
2023-05-08T18:32:27.347Z,78.10
2023-05-08T18:35:14.201Z,77.94
2023-05-08T18:38:02.513Z,78.12
2023-05-08T18:40:49.711Z,78.04
2023-05-08T18:43:36.970Z,77.62
2023-05-08T18:46:26.190Z,77.86
2023-05-08T18:49:13.231Z,77.87
2023-05-08T18:52:00.179Z,77.82
2023-05-08T18:54:47.116Z,77.92
2023-05-08T18:57:34.361Z,78.54
2023-05-08T19:00:22.348Z,78.10
2023-05-08T19:03:09.466Z,78.76
2023-05-08T19:05:58.277Z,78.14
2023-05-08T19:08:45.225Z,77.46
2023-05-08T19:11:32.294Z,76.60
2023-05-08T19:14:19.406Z,76.97
2023-05-08T19:17:06.341Z,76.81
2023-05-08T19:19:53.410Z,76.38
2023-05-08T19:22:40.546Z,76.70
2023-05-08T19:25:27.899Z,76.22
2023-05-08T19:28:15.058Z,76.19
2023-05-08T19:31:01.809Z,76.66
2023-05-08T19:33:49.519Z,76.46
2023-05-08T19:36:37.751Z,76.41
2023-05-08T19:39:25.370Z,75.69
2023-05-08T19:42:13.998Z,75.93
2023-05-08T19:45:01.516Z,76.08
2023-05-08T19:47:51.928Z,76.31
2023-05-08T19:50:38.872Z,76.27
2023-05-08T19:53:25.942Z,76.18
2023-05-08T19:56:12.886Z,76.64
2023-05-08T19:58:59.796Z,76.00
2023-05-08T20:01:48.128Z,76.12
2023-05-08T20:04:48.738Z,75.63
2023-05-08T20:07:42.452Z,75.69
2023-05-08T20:10:29.432Z,76.06
2023-05-08T20:13:17.757Z,75.64
2023-05-08T20:16:05.384Z,75.17
2023-05-08T20:18:55.218Z,75.16
2023-05-08T20:21:44.097Z,74.04
2023-05-08T20:24:31.403Z,74.16
2023-05-08T20:27:19.801Z,74.40
2023-05-08T20:30:08.101Z,73.38
2023-05-08T20:32:54.801Z,73.49
2023-05-08T20:35:42.100Z,74.07
2023-05-08T20:38:30.134Z,74.75
2023-05-08T20:41:20.335Z,74.12
2023-05-08T20:44:08.186Z,74.23
2023-05-08T20:46:55.392Z,73.95
2023-05-08T20:49:42.176Z,73.77
2023-05-08T20:52:29.294Z,73.37
2023-05-08T20:55:16.398Z,74.16
2023-05-08T20:58:04.447Z,73.84
2023-05-08T21:00:51.431Z,74.55
2023-05-08T21:03:39.013Z,74.53
2023-05-08T21:06:26.011Z,74.82
2023-05-08T21:09:12.895Z,74.82
2023-05-08T21:12:00.754Z,75.17
2023-05-08T21:14:47.581Z,74.87
2023-05-08T21:17:34.362Z,75.32
2023-05-08T21:20:21.472Z,75.33
2023-05-08T21:23:08.353Z,76.08
2023-05-08T21:25:55.443Z,75.52
2023-05-08T21:28:42.017Z,75.64
2023-05-08T21:31:29.127Z,75.51
2023-05-08T21:34:16.675Z,75.61
2023-05-08T21:37:03.968Z,75.92
2023-05-08T21:39:50.795Z,75.82
2023-05-08T21:42:39.445Z,75.75
2023-05-08T21:45:29.233Z,75.63
2023-05-08T21:48:16.139Z,76.39
2023-05-08T21:51:03.189Z,76.96
2023-05-08T21:53:49.938Z,76.51
2023-05-08T21:56:37.043Z,76.28
2023-05-08T21:59:24.003Z,76.48
2023-05-08T22:02:13.210Z,76.32
2023-05-08T22:05:00.225Z,76.13
2023-05-08T22:07:47.692Z,76.35
2023-05-08T22:10:34.401Z,76.38
2023-05-08T22:13:21.420Z,76.60
2023-05-08T22:16:08.523Z,76.34
2023-05-08T22:18:55.201Z,76.16
2023-05-08T22:21:43.259Z,76.04
2023-05-08T22:24:30.082Z,75.81
2023-05-08T22:27:16.986Z,75.38
2023-05-08T22:30:04.460Z,75.67
2023-05-08T22:32:57.371Z,75.82
2023-05-08T22:35:44.424Z,75.82
2023-05-08T22:38:31.248Z,75.29
2023-05-08T22:41:18.121Z,75.33
2023-05-08T22:44:06.351Z,75.55
2023-05-08T22:46:53.531Z,75.37
2023-05-08T22:49:41.905Z,75.08
2023-05-08T22:52:28.890Z,75.65
2023-05-08T22:55:16.541Z,75.20
2023-05-08T22:58:04.583Z,75.31
2023-05-08T23:00:51.573Z,75.95
2023-05-08T23:03:38.817Z,76.15
2023-05-08T23:06:26.230Z,76.47
2023-05-08T23:09:13.308Z,75.80
2023-05-08T23:11:59.981Z,76.37
2023-05-08T23:14:46.888Z,76.22
2023-05-08T23:17:34.690Z,76.39
2023-05-08T23:20:21.492Z,76.35
2023-05-08T23:23:08.449Z,76.41
2023-05-08T23:25:55.244Z,76.77
2023-05-08T23:28:42.120Z,76.71
2023-05-08T23:31:29.272Z,76.94
2023-05-08T23:34:16.268Z,77.07
2023-05-08T23:37:03.594Z,76.80
2023-05-08T23:43:01.685Z,77.57
2023-05-08T23:45:48.522Z,77.09
2023-05-08T23:48:35.480Z,77.51
2023-05-08T23:51:21.987Z,77.30
2023-05-08T23:54:09.489Z,77.85
2023-05-08T23:56:56.245Z,77.81
2023-05-08T23:59:43.235Z,77.75
